Time;durP1;ratioP1;P1;durP2;ratioP2;P2;SDS_P1;SDS_P2;PMS_P1;PMS_P2;Temp;Humidity;BMP_temperature;BMP_pressure;BME280_temperature;BME280_humidity;BME280_pressure;Samples;Min_cycle;Max_cycle;Signal;HPM_P1;HPM_P2
2021/10/11 00:02:08;;;;;;;6.65;2.20;;;13.70;95.30;;;;;;5057215;28;20028;-77
2021/10/11 00:04:34;;;;;;;6.25;1.90;;;13.70;95.30;;;;;;5073535;28;20389;-77
2021/10/11 00:06:59;;;;;;;6.97;1.10;;;13.70;95.30;;;;;;5056723;28;20028;-77
2021/10/11 00:09:25;;;;;;;8.23;2.00;;;13.80;95.30;;;;;;5040320;28;20111;-77
2021/10/11 00:11:51;;;;;;;9.40;1.77;;;13.70;95.30;;;;;;5074853;28;20511;-77
2021/10/11 00:14:16;;;;;;;7.68;2.58;;;13.70;95.30;;;;;;5056964;28;20033;-77
2021/10/11 00:16:42;;;;;;;6.70;1.65;;;13.70;95.30;;;;;;5056235;28;20028;-77
2021/10/11 00:19:08;;;;;;;8.80;1.60;;;13.70;95.30;;;;;;5089690;28;20086;-78
2021/10/11 00:21:34;;;;;;;10.88;2.67;;;13.70;95.30;;;;;;5090235;28;20118;-77
2021/10/11 00:23:59;;;;;;;7.57;1.65;;;13.70;95.40;;;;;;5073051;28;20090;-77
2021/10/11 00:26:25;;;;;;;8.80;2.20;;;13.70;95.40;;;;;;5074164;28;20029;-77
2021/10/11 00:28:51;;;;;;;6.80;1.85;;;13.70;95.30;;;;;;5072925;28;20060;-77
2021/10/11 00:31:17;;;;;;;7.88;1.80;;;13.70;95.30;;;;;;5074210;28;20538;-76
2021/10/11 00:33:42;;;;;;;7.32;1.80;;;13.70;95.30;;;;;;5090732;28;20364;-77
2021/10/11 00:36:08;;;;;;;7.15;1.52;;;13.70;95.30;;;;;;5056370;28;20029;-77
2021/10/11 00:38:33;;;;;;;7.55;2.40;;;13.60;95.20;;;;;;5056384;28;20115;-77
2021/10/11 00:40:59;;;;;;;9.93;2.10;;;13.60;95.20;;;;;;5074354;28;20036;-76
2021/10/11 00:43:26;;;;;;;7.55;1.65;;;13.60;95.30;;;;;;5072645;28;20388;-76
2021/10/11 00:45:52;;;;;;;8.52;1.60;;;13.60;95.30;;;;;;5039871;28;20028;-76
2021/10/11 00:48:17;;;;;;;10.48;1.80;;;13.60;95.40;;;;;;5056019;28;20127;-76
2021/10/11 00:50:43;;;;;;;6.43;1.73;;;13.50;95.40;;;;;;5072502;28;20029;-76
2021/10/11 00:53:10;;;;;;;9.30;1.88;;;13.50;95.40;;;;;;5073098;28;20036;-78
2021/10/11 00:55:36;;;;;;;8.75;2.00;;;13.50;95.40;;;;;;5074097;28;20473;-76
2021/10/11 00:58:02;;;;;;;7.97;1.70;;;13.50;95.50;;;;;;5089642;28;20377;-76
2021/10/11 01:00:28;;;;;;;10.18;1.67;;;13.50;95.50;;;;;;5073602;28;20029;-76
2021/10/11 01:02:53;;;;;;;10.02;1.73;;;13.50;95.50;;;;;;5073483;28;20028;-75
2021/10/11 01:05:19;;;;;;;6.75;1.85;;;13.50;95.60;;;;;;5073677;28;20028;-76
2021/10/11 01:07:45;;;;;;;9.70;1.92;;;13.50;95.60;;;;;;5072252;28;20032;-76
2021/10/11 01:10:11;;;;;;;7.38;1.95;;;13.40;95.60;;;;;;5072701;28;20121;-76
2021/10/11 01:12:37;;;;;;;6.25;1.80;;;13.40;95.50;;;;;;5088983;28;20419;-76
2021/10/11 01:15:03;;;;;;;9.95;2.42;;;13.50;95.60;;;;;;5072595;28;20099;-76
2021/10/11 01:17:29;;;;;;;9.50;1.85;;;13.40;95.60;;;;;;5089009;28;20075;-76
2021/10/11 01:19:56;;;;;;;6.35;1.70;;;13.40;95.50;;;;;;5073467;28;20056;-76
2021/10/11 01:22:36;;;;;;;10.85;2.50;;;13.40;95.50;;;;;;5073538;28;20115;-76
2021/10/11 01:25:02;;;;;;;11.73;2.35;;;13.40;95.50;;;;;;5072213;28;20035;-76
2021/10/11 01:27:28;;;;;;;5.55;2.33;;;13.30;95.50;;;;;;5072058;28;20507;-78
2021/10/11 01:29:55;;;;;;;11.77;2.08;;;13.30;95.40;;;;;;5054932;28;20060;-76
2021/10/11 01:32:21;;;;;;;11.15;2.50;;;13.30;95.40;;;;;;5072161;28;20031;-76
2021/10/11 01:34:47;;;;;;;9.30;2.33;;;13.20;95.40;;;;;;5055317;28;20033;-76
2021/10/11 01:37:13;;;;;;;6.95;2.42;;;13.20;95.50;;;;;;5055418;28;20035;-75
2021/10/11 01:39:38;;;;;;;7.85;1.88;;;13.10;95.60;;;;;;5073457;28;20029;-75
2021/10/11 01:42:04;;;;;;;10.40;1.65;;;13.10;95.70;;;;;;5055312;28;20032;-76
2021/10/11 01:44:30;;;;;;;9.05;2.00;;;13.10;95.80;;;;;;5055859;28;20036;-76
2021/10/11 01:46:56;;;;;;;12.48;3.50;;;13.00;96.00;;;;;;5073194;28;20032;-76
2021/10/11 01:49:21;;;;;;;12.02;2.75;;;13.00;96.00;;;;;;5072110;28;20051;-76
2021/10/11 01:51:47;;;;;;;9.60;2.78;;;13.00;96.10;;;;;;5088856;28;20079;-77
2021/10/11 01:54:13;;;;;;;6.38;2.63;;;13.00;96.40;;;;;;5071916;28;20033;-75
2021/10/11 01:56:38;;;;;;;15.15;2.88;;;13.00;96.70;;;;;;5089281;28;20025;-77
2021/10/11 01:59:04;;;;;;;10.68;3.17;;;13.00;96.50;;;;;;5088974;28;20028;-75
2021/10/11 02:01:30;;;;;;;8.23;3.42;;;13.00;96.40;;;;;;5071852;28;20040;-75
2021/10/11 02:03:55;;;;;;;8.52;2.22;;;13.00;96.50;;;;;;5071919;28;20037;-75
2021/10/11 02:06:22;;;;;;;10.25;2.60;;;13.00;96.50;;;;;;5072040;28;20086;-76
2021/10/11 02:08:48;;;;;;;10.73;2.50;;;12.90;96.40;;;;;;5073250;28;20032;-76
2021/10/11 02:11:14;;;;;;;8.57;2.65;;;12.90;96.40;;;;;;5072986;28;20040;-75
2021/10/11 02:13:40;;;;;;;11.93;2.60;;;12.90;96.50;;;;;;5072091;28;20058;-75
2021/10/11 02:16:06;;;;;;;12.00;3.20;;;12.80;96.50;;;;;;5071924;28;20632;-75
2021/10/11 02:18:31;;;;;;;12.48;2.47;;;12.80;96.50;;;;;;5071495;28;20056;-75
2021/10/11 02:20:57;;;;;;;13.63;2.40;;;12.80;96.50;;;;;;5038320;28;20082;-75
2021/10/11 02:23:22;;;;;;;12.05;2.33;;;12.70;96.70;;;;;;5071932;28;20492;-75
2021/10/11 02:25:48;;;;;;;10.13;2.05;;;12.70;96.50;;;;;;5054638;28;20059;-75
2021/10/11 02:28:14;;;;;;;11.52;2.53;;;12.70;96.40;;;;;;5072433;28;20057;-75
2021/10/11 02:30:39;;;;;;;12.73;2.53;;;12.70;96.40;;;;;;5071298;28;20064;-75
2021/10/11 02:33:05;;;;;;;9.45;2.50;;;12.60;96.70;;;;;;5073173;28;20150;-75
2021/10/11 02:35:31;;;;;;;10.93;3.10;;;12.60;96.50;;;;;;5071728;28;20029;-76
2021/10/11 02:37:57;;;;;;;10.20;2.35;;;12.50;96.50;;;;;;5073003;28;20448;-76
2021/10/11 02:40:22;;;;;;;9.48;1.95;;;12.50;96.50;;;;;;5073624;28;20023;-77
2021/10/11 02:42:48;;;;;;;7.22;1.90;;;12.50;96.50;;;;;;5075506;28;20136;-76
2021/10/11 02:45:14;;;;;;;13.55;2.25;;;12.40;96.50;;;;;;5058741;28;20036;-75
2021/10/11 02:47:39;;;;;;;6.38;2.40;;;12.40;96.50;;;;;;5076284;28;20040;-76
2021/10/11 02:50:06;;;;;;;13.43;2.83;;;12.40;96.40;;;;;;5092217;28;20024;-76
2021/10/11 02:52:33;;;;;;;10.80;2.20;;;12.30;96.40;;;;;;5076547;28;20033;-76
2021/10/11 02:55:02;;;;;;;6.87;2.27;;;12.30;96.40;;;;;;5058610;28;20541;-76
2021/10/11 02:57:28;;;;;;;10.65;2.63;;;12.30;96.40;;;;;;5075172;28;20048;-76
2021/10/11 02:59:54;;;;;;;12.40;2.65;;;12.20;96.40;;;;;;5074867;28;20460;-76
2021/10/11 03:02:19;;;;;;;12.25;3.15;;;12.10;96.30;;;;;;5075063;28;20052;-76
2021/10/11 03:04:45;;;;;;;12.57;2.50;;;12.20;96.40;;;;;;5041624;28;20106;-76
2021/10/11 03:07:11;;;;;;;12.32;2.55;;;12.10;96.40;;;;;;5091253;28;20396;-76
2021/10/11 03:09:37;;;;;;;9.68;3.25;;;12.10;96.30;;;;;;5057665;28;20147;-76
2021/10/11 03:12:03;;;;;;;9.80;2.23;;;12.00;96.30;;;;;;5090993;28;20101;-76
2021/10/11 03:14:28;;;;;;;11.37;2.90;;;12.00;96.30;;;;;;5075700;28;20033;-76
2021/10/11 03:16:54;;;;;;;11.73;2.33;;;12.00;96.30;;;;;;5075584;28;20385;-76
2021/10/11 03:19:20;;;;;;;9.07;2.80;;;12.00;96.30;;;;;;5074360;28;20464;-77
2021/10/11 03:21:45;;;;;;;9.43;2.40;;;11.90;96.30;;;;;;5075622;28;20437;-77
2021/10/11 03:24:11;;;;;;;10.70;2.63;;;11.90;96.30;;;;;;5057451;28;20037;-76
2021/10/11 03:26:36;;;;;;;13.87;2.17;;;12.00;96.70;;;;;;5075385;28;20039;-77
2021/10/11 03:29:02;;;;;;;8.60;2.60;;;11.90;96.40;;;;;;5075040;28;20056;-76
2021/10/11 03:31:28;;;;;;;9.77;2.60;;;11.90;96.30;;;;;;5073975;28;20032;-76
2021/10/11 03:33:53;;;;;;;11.33;2.30;;;11.90;96.30;;;;;;5074150;28;20111;-76
2021/10/11 03:36:19;;;;;;;13.40;2.23;;;11.80;96.30;;;;;;5090805;28;20032;-76
2021/10/11 03:38:45;;;;;;;10.27;2.45;;;11.80;96.30;;;;;;5057375;28;20082;-76
2021/10/11 03:41:10;;;;;;;12.47;2.03;;;11.80;96.30;;;;;;5090881;28;20037;-76
2021/10/11 03:43:36;;;;;;;11.97;2.07;;;11.80;96.30;;;;;;5073915;28;20028;-76
2021/10/11 03:46:02;;;;;;;13.93;1.93;;;11.70;96.30;;;;;;5075100;28;20484;-76
2021/10/11 03:48:28;;;;;;;8.70;2.17;;;11.70;96.30;;;;;;5073696;28;20473;-76
2021/10/11 03:50:53;;;;;;;6.23;1.93;;;11.70;96.30;;;;;;5074694;28;20481;-76
2021/10/11 03:53:19;;;;;;;11.23;2.07;;;11.70;96.20;;;;;;5090661;28;20063;-76
2021/10/11 03:55:45;;;;;;;9.33;2.37;;;11.70;96.20;;;;;;5057287;28;20090;-76
2021/10/11 03:58:11;;;;;;;8.37;2.43;;;11.60;96.10;;;;;;5074605;28;20036;-75
2021/10/11 04:00:36;;;;;;;6.70;2.07;;;11.60;96.20;;;;;;5074778;28;20105;-76
2021/10/11 04:03:04;;;;;;;12.00;2.17;;;11.50;96.10;;;;;;5074005;28;20453;-76
2021/10/11 04:05:30;;;;;;;12.87;2.17;;;11.50;96.10;;;;;;5090408;28;20028;-76
2021/10/11 04:07:59;;;;;;;7.70;2.83;;;11.40;96.10;;;;;;5090170;28;20056;-76
2021/10/11 04:10:31;;;;;;;7.80;2.40;;;11.50;96.10;;;;;;5041625;28;20419;-76
2021/10/11 04:13:02;;;;;;;9.17;2.03;;;11.40;96.10;;;;;;5090018;28;20036;-76
2021/10/11 04:15:28;;;;;;;11.00;2.23;;;11.40;96.10;;;;;;5057165;28;20028;-76
2021/10/11 04:17:57;;;;;;;7.30;2.13;;;11.30;96.10;;;;;;5073583;28;20078;-76
2021/10/11 04:20:23;;;;;;;6.97;1.97;;;11.30;96.10;;;;;;5089949;28;20029;-76
2021/10/11 04:22:49;;;;;;;9.90;2.27;;;11.30;96.10;;;;;;5073044;28;20458;-76
2021/10/11 04:25:15;;;;;;;9.67;2.30;;;11.30;96.10;;;;;;5074206;28;20060;-76
2021/10/11 04:27:41;;;;;;;16.10;2.13;;;11.20;96.20;;;;;;5090042;28;20056;-76
2021/10/11 04:30:08;;;;;;;7.30;2.70;;;11.20;96.30;;;;;;5073016;28;20544;-76
2021/10/11 04:32:34;;;;;;;8.43;2.20;;;11.10;96.20;;;;;;5056185;28;20032;-76
2021/10/11 04:35:00;;;;;;;11.83;2.53;;;11.10;96.30;;;;;;5073347;28;20529;-75
2021/10/11 04:37:26;;;;;;;8.47;2.63;;;11.10;96.30;;;;;;5072975;28;20486;-76
2021/10/11 04:39:52;;;;;;;11.23;2.37;;;11.10;96.30;;;;;;5089817;28;20027;-75
2021/10/11 04:42:18;;;;;;;9.47;2.33;;;11.10;96.30;;;;;;5072710;28;20407;-75
2021/10/11 04:44:43;;;;;;;16.50;2.87;;;11.00;96.30;;;;;;5074416;28;20037;-75
2021/10/11 04:47:09;;;;;;;11.03;3.10;;;11.00;96.30;;;;;;5072525;28;20021;-75
2021/10/11 04:49:34;;;;;;;8.63;2.83;;;11.00;96.30;;;;;;5089574;28;20123;-75
2021/10/11 04:52:00;;;;;;;14.63;3.63;;;10.90;96.30;;;;;;5073533;28;20039;-75
2021/10/11 04:54:26;;;;;;;9.60;2.73;;;11.00;96.30;;;;;;5072713;28;20085;-76
2021/10/11 04:56:51;;;;;;;12.07;3.20;;;10.90;96.30;;;;;;5056233;28;20112;-76
2021/10/11 04:59:17;;;;;;;11.37;3.03;;;10.90;96.30;;;;;;5073730;28;20486;-76
2021/10/11 05:01:42;;;;;;;9.30;2.80;;;10.90;96.30;;;;;;5055931;28;20029;-76
2021/10/11 05:04:09;;;;;;;20.13;4.33;;;10.90;96.40;;;;;;5073517;28;20028;-76
2021/10/11 05:06:35;;;;;;;8.83;2.67;;;10.90;96.40;;;;;;5055981;28;20029;-75
2021/10/11 05:09:00;;;;;;;13.40;2.87;;;10.90;96.40;;;;;;5072369;28;20032;-75
2021/10/11 05:11:30;;;;;;;11.03;2.53;;;10.80;96.40;;;;;;5072821;28;20036;-75
2021/10/11 05:13:56;;;;;;;12.17;2.87;;;10.80;96.40;;;;;;5073329;28;20107;-75
2021/10/11 05:16:22;;;;;;;10.57;3.53;;;10.80;96.30;;;;;;5089022;28;20073;-75
2021/10/11 05:18:48;;;;;;;11.10;3.70;;;10.70;96.60;;;;;;5072955;28;20039;-76
2021/10/11 05:21:14;;;;;;;7.80;2.40;;;10.70;96.40;;;;;;5092071;28;20028;-76
2021/10/11 05:23:40;;;;;;;15.67;3.90;;;10.70;96.50;;;;;;5093161;28;20059;-77
2021/10/11 05:26:06;;;;;;;13.03;3.13;;;10.60;96.40;;;;;;5075266;28;20121;-76
2021/10/11 05:28:31;;;;;;;10.03;2.50;;;10.50;96.50;;;;;;5093235;28;20044;-76
2021/10/11 05:30:57;;;;;;;12.37;3.33;;;10.60;96.50;;;;;;5092172;28;20047;-76
2021/10/11 05:33:23;;;;;;;8.13;2.57;;;10.50;96.50;;;;;;5093390;28;20028;-75
2021/10/11 05:35:50;;;;;;;9.03;2.57;;;10.50;96.50;;;;;;5093390;28;20030;-76
2021/10/11 05:38:16;;;;;;;11.47;2.63;;;10.60;96.60;;;;;;5058734;28;20020;-76
2021/10/11 05:40:42;;;;;;;8.67;2.40;;;10.50;96.50;;;;;;5075454;28;20526;-76
2021/10/11 05:43:07;;;;;;;10.23;2.67;;;10.50;96.50;;;;;;5083128;28;20542;-76
2021/10/11 05:45:33;;;;;;;12.10;2.50;;;10.50;96.50;;;;;;5072294;28;20392;-76
2021/10/11 05:47:59;;;;;;;9.90;2.50;;;10.50;96.50;;;;;;5091900;28;20077;-75
2021/10/11 05:50:25;;;;;;;8.90;2.30;;;10.40;96.50;;;;;;5084999;28;20496;-76
2021/10/11 05:52:51;;;;;;;9.63;2.27;;;10.40;96.50;;;;;;5092976;28;20483;-76
2021/10/11 05:55:16;;;;;;;8.67;2.27;;;10.50;96.50;;;;;;5091682;28;20549;-77
2021/10/11 05:57:42;;;;;;;13.93;2.37;;;10.40;96.40;;;;;;5075495;28;20031;-76
2021/10/11 06:00:09;;;;;;;12.83;2.87;;;10.30;96.40;;;;;;5089324;28;20384;-76
2021/10/11 06:02:35;;;;;;;10.13;3.00;;;10.40;96.50;;;;;;5073140;28;20102;-76
2021/10/11 06:05:01;;;;;;;12.50;2.60;;;10.40;96.50;;;;;;5071552;28;20050;-77
2021/10/11 06:07:28;;;;;;;7.70;2.17;;;10.30;96.50;;;;;;5081871;28;20040;-76
2021/10/11 06:09:57;;;;;;;7.73;2.57;;;10.40;96.60;;;;;;5079104;28;20103;-77
2021/10/11 06:12:23;;;;;;;11.03;2.47;;;10.30;96.60;;;;;;5091535;28;20479;-76
2021/10/11 06:14:52;;;;;;;11.33;2.23;;;10.30;96.70;;;;;;5091682;28;20028;-76
2021/10/11 06:17:18;;;;;;;16.10;3.13;;;10.40;96.70;;;;;;5095671;28;20039;-76
2021/10/11 06:19:43;;;;;;;8.00;1.90;;;10.40;96.80;;;;;;5078387;28;20028;-76
2021/10/11 06:22:09;;;;;;;10.70;2.47;;;10.40;96.90;;;;;;5095455;28;20034;-76
2021/10/11 06:24:35;;;;;;;6.23;2.23;;;10.40;97.00;;;;;;5078682;28;20097;-76
2021/10/11 06:27:03;;;;;;;10.03;2.47;;;10.40;97.00;;;;;;5096565;28;20126;-76
2021/10/11 06:29:29;;;;;;;9.90;2.63;;;10.40;97.00;;;;;;5078739;28;20050;-77
2021/10/11 06:31:54;;;;;;;9.93;2.77;;;10.50;97.10;;;;;;5096674;28;20483;-76
2021/10/11 06:34:21;;;;;;;15.90;2.43;;;10.50;97.00;;;;;;5095585;28;20122;-76
2021/10/11 06:36:47;;;;;;;9.63;2.77;;;10.50;97.10;;;;;;5078862;28;20452;-76
2021/10/11 06:39:13;;;;;;;5.80;2.60;;;10.50;97.40;;;;;;5096896;28;20024;-76
2021/10/11 06:41:38;;;;;;;14.03;3.07;;;10.60;97.10;;;;;;5095729;28;20036;-76
2021/10/11 06:44:04;;;;;;;13.90;3.10;;;10.60;97.10;;;;;;5094553;28;20065;-76
2021/10/11 06:46:30;;;;;;;7.50;2.67;;;10.60;97.10;;;;;;5061689;28;20404;-77
2021/10/11 06:48:55;;;;;;;9.80;2.67;;;10.70;97.20;;;;;;5084366;28;20495;-76
2021/10/11 06:51:21;;;;;;;10.73;2.70;;;10.70;97.10;;;;;;5074921;28;20382;-76
2021/10/11 06:53:47;;;;;;;9.17;2.93;;;10.80;97.10;;;;;;5074750;28;20037;-76
2021/10/11 06:56:13;;;;;;;12.70;3.07;;;10.80;97.10;;;;;;5076211;28;20033;-76
2021/10/11 06:58:38;;;;;;;13.10;3.37;;;10.80;97.10;;;;;;5089096;28;20376;-76
2021/10/11 07:01:04;;;;;;;10.10;2.33;;;10.80;97.10;;;;;;5095105;28;20032;-75
2021/10/11 07:03:30;;;;;;;11.73;3.27;;;10.90;97.10;;;;;;5078326;28;20063;-74
2021/10/11 07:06:20;;;;;;;7.03;2.70;;;10.90;97.10;;;;;;5078198;28;20032;-75
2021/10/11 07:08:42;;;;;;;7.77;2.87;;;10.90;97.10;;;;;;5095804;28;20035;-75
2021/10/11 07:11:08;;;;;;;8.03;2.90;;;11.10;97.00;;;;;;5095057;28;20342;-75
2021/10/11 07:13:35;;;;;;;10.83;2.90;;;11.00;97.00;;;;;;5095141;28;20028;-75
2021/10/11 07:16:04;;;;;;;12.48;3.53;;;11.10;97.30;;;;;;5096294;28;20036;-75
2021/10/11 07:18:33;;;;;;;10.40;3.13;;;11.20;97.20;;;;;;5095441;28;20066;-75
2021/10/11 07:21:00;;;;;;;11.77;2.70;;;11.20;96.90;;;;;;5095764;28;20032;-75
2021/10/11 07:23:28;;;;;;;9.80;3.20;;;11.20;96.90;;;;;;5096023;28;20024;-75
2021/10/11 07:25:54;;;;;;;15.10;3.87;;;11.20;96.90;;;;;;5095259;28;20066;-76
2021/10/11 07:28:20;;;;;;;12.27;3.20;;;11.20;96.90;;;;;;5094332;28;20092;-75
2021/10/11 07:30:45;;;;;;;13.32;3.90;;;11.30;96.90;;;;;;5060833;28;20043;-76
2021/10/11 07:33:11;;;;;;;13.70;3.45;;;11.30;96.90;;;;;;5063968;28;20079;-76
2021/10/11 07:35:37;;;;;;;13.32;3.50;;;11.40;96.90;;;;;;5074199;28;20491;-76
2021/10/11 07:38:02;;;;;;;12.10;3.00;;;11.40;96.80;;;;;;5075219;28;20032;-76
2021/10/11 07:40:28;;;;;;;9.93;3.17;;;11.50;96.80;;;;;;5075064;28;20029;-78
2021/10/11 07:42:54;;;;;;;10.00;2.80;;;11.50;96.70;;;;;;5084086;28;20134;-76
2021/10/11 07:45:19;;;;;;;13.07;2.97;;;11.50;96.70;;;;;;5095517;28;20040;-76
2021/10/11 07:47:45;;;;;;;17.70;3.90;;;11.60;96.80;;;;;;5095234;28;20043;-76
2021/10/11 07:50:11;;;;;;;12.15;3.33;;;11.70;96.80;;;;;;5095176;28;20039;-76
2021/10/11 07:52:37;;;;;;;8.63;2.55;;;11.70;96.70;;;;;;5093911;28;20036;-76
2021/10/11 07:55:03;;;;;;;14.80;3.08;;;11.80;96.60;;;;;;5094030;28;20032;-76
2021/10/11 07:57:33;;;;;;;10.40;3.08;;;11.80;96.60;;;;;;5093961;28;20028;-76
2021/10/11 07:59:59;;;;;;;9.32;3.05;;;11.80;96.50;;;;;;5094249;28;20018;-75
2021/10/11 08:02:25;;;;;;;11.15;3.38;;;11.80;96.50;;;;;;5095175;28;20409;-75
2021/10/11 08:04:50;;;;;;;11.45;3.65;;;11.80;96.50;;;;;;5077145;28;20126;-76
2021/10/11 08:07:16;;;;;;;6.00;2.35;;;11.90;96.80;;;;;;5076934;28;20066;-76
2021/10/11 08:09:42;;;;;;;6.85;2.63;;;11.90;96.90;;;;;;5077210;28;20360;-77
2021/10/11 08:12:09;;;;;;;12.77;3.20;;;11.90;96.60;;;;;;5093919;28;20032;-77
2021/10/11 08:14:35;;;;;;;11.98;3.00;;;12.00;96.70;;;;;;5077053;28;20103;-77
2021/10/11 08:17:01;;;;;;;8.27;2.85;;;12.20;96.70;;;;;;5095148;28;20099;-77
2021/10/11 08:19:26;;;;;;;17.10;3.08;;;12.20;96.60;;;;;;5076756;28;20040;-77
2021/10/11 08:21:52;;;;;;;12.60;3.03;;;12.30;96.60;;;;;;5070630;28;20441;-77
2021/10/11 08:24:18;;;;;;;9.68;2.63;;;12.40;96.60;;;;;;5093619;28;20050;-77
2021/10/11 08:26:44;;;;;;;9.05;2.40;;;12.40;96.60;;;;;;5093291;28;20031;-75
2021/10/11 08:29:09;;;;;;;6.32;2.50;;;12.50;96.60;;;;;;5059751;28;20400;-76
2021/10/11 08:31:36;;;;;;;10.05;3.25;;;12.50;96.60;;;;;;5094560;28;20431;-75
2021/10/11 08:34:02;;;;;;;9.80;2.47;;;12.60;96.50;;;;;;5094480;28;20047;-75
2021/10/11 08:36:29;;;;;;;10.20;2.58;;;12.70;96.40;;;;;;5093508;28;20430;-75
2021/10/11 08:38:55;;;;;;;6.82;2.30;;;12.70;96.40;;;;;;5062628;28;20538;-75
2021/10/11 08:41:21;;;;;;;15.60;3.30;;;12.70;96.20;;;;;;5074121;28;20037;-76
2021/10/11 08:43:47;;;;;;;21.30;2.38;;;12.80;96.20;;;;;;5072790;28;20503;-76
2021/10/11 08:46:13;;;;;;;11.82;2.38;;;12.90;96.20;;;;;;5073076;28;20067;-76
2021/10/11 08:48:39;;;;;;;8.90;1.95;;;13.00;95.80;;;;;;5092534;28;20111;-76
2021/10/11 08:51:06;;;;;;;9.60;1.60;;;13.00;95.70;;;;;;5092892;28;20124;-76
2021/10/11 08:53:32;;;;;;;9.00;1.70;;;13.10;95.70;;;;;;5092418;28;20038;-76
2021/10/11 08:55:58;;;;;;;9.70;2.25;;;13.10;95.60;;;;;;5093963;28;20095;-76
2021/10/11 08:58:24;;;;;;;12.70;2.53;;;13.20;95.60;;;;;;5077418;28;20067;-76
2021/10/11 09:00:49;;;;;;;15.32;2.60;;;13.30;95.60;;;;;;5076199;28;20016;-76
2021/10/11 09:03:19;;;;;;;9.43;2.50;;;13.40;95.50;;;;;;5076436;28;20024;-76
2021/10/11 09:05:47;;;;;;;9.85;2.17;;;13.50;95.50;;;;;;5076736;28;20032;-76
2021/10/11 09:08:18;;;;;;;11.60;1.85;;;13.60;95.50;;;;;;5078547;28;20023;-76
2021/10/11 09:10:55;;;;;;;6.55;1.73;;;13.70;95.20;;;;;;5094368;28;20036;-77
2021/10/11 09:13:29;;;;;;;7.82;2.00;;;13.70;95.10;;;;;;5094297;28;20103;-77
2021/10/11 09:16:40;;;;;;;9.85;1.63;;;13.90;95.10;;;;;;5093716;28;20033;-77
2021/10/11 09:19:19;;;;;;;8.48;1.13;;;14.00;95.00;;;;;;5093080;28;20049;-77
2021/10/11 09:21:45;;;;;;;11.63;1.48;;;14.10;94.70;;;;;;5076343;28;20103;-77
2021/10/11 09:24:12;;;;;;;10.63;1.58;;;14.20;94.60;;;;;;5092627;28;20028;-77
2021/10/11 09:26:47;;;;;;;8.52;1.38;;;14.40;94.50;;;;;;5093678;28;20544;-77
2021/10/11 09:29:14;;;;;;;10.40;1.88;;;14.40;94.40;;;;;;5092399;28;20044;-77
2021/10/11 09:31:47;;;;;;;12.43;1.95;;;14.50;94.30;;;;;;5079689;28;20531;-77
2021/10/11 09:34:19;;;;;;;6.75;1.88;;;14.60;94.10;;;;;;5072141;28;20020;-77
2021/10/11 09:36:56;;;;;;;9.55;1.58;;;14.70;93.90;;;;;;5073302;28;20033;-77
2021/10/11 09:39:23;;;;;;;9.32;1.90;;;14.80;93.80;;;;;;5073263;28;20158;-76
2021/10/11 09:41:50;;;;;;;7.25;1.45;;;14.90;93.70;;;;;;5072127;28;20442;-77
2021/10/11 09:44:18;;;;;;;12.65;1.73;;;14.90;93.50;;;;;;5073525;28;20028;-77
2021/10/11 09:46:45;;;;;;;8.68;2.40;;;15.10;93.40;;;;;;5073170;28;20032;-77
2021/10/11 09:49:11;;;;;;;8.77;1.55;;;15.20;93.30;;;;;;5059431;28;20020;-76
2021/10/11 09:51:37;;;;;;;10.85;2.40;;;15.20;93.00;;;;;;5097906;28;20099;-76
2021/10/11 09:54:03;;;;;;;10.98;1.52;;;15.20;92.60;;;;;;5094973;28;20029;-77
2021/10/11 09:56:29;;;;;;;11.73;1.98;;;15.20;92.70;;;;;;5076252;28;20179;-76
2021/10/11 09:58:55;;;;;;;10.10;1.60;;;15.30;92.30;;;;;;5076144;28;20476;-76
2021/10/11 10:01:24;;;;;;;11.10;1.48;;;15.30;92.10;;;;;;5076165;28;20029;-77
2021/10/11 10:03:52;;;;;;;8.52;1.35;;;15.30;91.90;;;;;;5077189;28;20052;-76
2021/10/11 10:06:19;;;;;;;16.83;2.15;;;15.30;91.80;;;;;;5075950;28;20036;-75
2021/10/11 10:08:49;;;;;;;9.73;1.50;;;15.30;91.40;;;;;;5075717;28;20032;-75
2021/10/11 10:11:17;;;;;;;11.88;2.00;;;15.30;91.30;;;;;;5076740;28;20028;-77
2021/10/11 10:13:47;;;;;;;12.55;1.85;;;15.20;91.20;;;;;;5059006;28;20455;-76
2021/10/11 10:16:14;;;;;;;15.02;2.15;;;15.20;91.10;;;;;;5059259;28;20025;-76
2021/10/11 10:18:44;;;;;;;10.82;2.25;;;15.20;91.00;;;;;;5076847;28;20052;-76
2021/10/11 10:21:11;;;;;;;10.00;1.73;;;15.20;91.10;;;;;;5076413;28;20021;-77
2021/10/11 10:23:41;;;;;;;11.02;2.72;;;15.30;91.10;;;;;;5076421;28;20408;-77
2021/10/11 10:26:10;;;;;;;6.75;1.33;;;15.40;91.10;;;;;;5075457;28;20112;-77
2021/10/11 10:28:47;;;;;;;9.18;1.35;;;15.60;91.50;;;;;;5076787;28;20076;-77
2021/10/11 10:31:32;;;;;;;8.30;1.30;;;15.70;91.00;;;;;;5075190;28;20037;-77
2021/10/11 10:33:58;;;;;;;9.73;1.60;;;15.80;90.90;;;;;;5092230;28;20070;-76
2021/10/11 10:36:27;;;;;;;9.25;1.98;;;16.00;90.90;;;;;;5095803;28;20027;-77
2021/10/11 10:39:07;;;;;;;7.30;1.52;;;16.40;91.20;;;;;;5090767;28;20044;-77
2021/10/11 10:41:34;;;;;;;7.20;1.33;;;16.90;91.50;;;;;;5092094;28;20029;-77
2021/10/11 10:44:20;;;;;;;5.28;0.90;;;17.60;91.80;;;;;;5075057;28;20035;-75
2021/10/11 10:46:53;;;;;;;6.65;1.38;;;18.10;90.40;;;;;;5076322;28;20532;-77
2021/10/11 10:49:42;;;;;;;10.98;1.55;;;18.50;89.50;;;;;;5075293;28;20028;-77
2021/10/11 10:52:13;;;;;;;8.20;1.58;;;18.90;86.20;;;;;;5074706;28;20392;-76
2021/10/11 10:54:49;;;;;;;8.07;1.33;;;19.40;84.90;;;;;;5075050;28;20041;-77
2021/10/11 10:57:21;;;;;;;6.88;1.38;;;19.70;83.10;;;;;;5074766;28;20055;-75
2021/10/11 10:59:55;;;;;;;7.45;1.20;;;20.10;82.00;;;;;;5083523;28;20028;-75
2021/10/11 11:02:21;;;;;;;5.32;0.90;;;20.50;79.30;;;;;;5092896;28;20036;-77
2021/10/11 11:05:04;;;;;;;7.72;0.80;;;20.80;76.70;;;;;;5074860;28;20565;-78
2021/10/11 11:07:31;;;;;;;10.68;1.60;;;20.90;73.00;;;;;;5076056;28;20033;-77
2021/10/11 11:09:59;;;;;;;12.38;1.40;;;20.60;70.10;;;;;;5075775;28;20056;-77
2021/10/11 11:12:35;;;;;;;8.85;1.10;;;20.30;68.90;;;;;;5076026;28;20033;-77
2021/10/11 11:15:04;;;;;;;6.60;1.73;;;20.00;68.60;;;;;;5075740;28;20044;-77
2021/10/11 11:17:32;;;;;;;3.78;0.73;;;20.00;70.50;;;;;;5075905;28;20395;-78
2021/10/11 11:19:59;;;;;;;6.07;0.85;;;20.40;71.00;;;;;;5075729;28;20083;-78
2021/10/11 11:22:28;;;;;;;7.63;1.02;;;21.10;70.90;;;;;;5076089;28;20028;-78
2021/10/11 11:25:00;;;;;;;6.07;0.95;;;21.80;69.80;;;;;;5074722;28;20032;-79
2021/10/11 11:27:34;;;;;;;7.20;1.02;;;22.70;69.40;;;;;;5058144;28;20033;-77
2021/10/11 11:30:07;;;;;;;6.78;0.75;;;23.50;67.20;;;;;;5075341;28;20400;-77
2021/10/11 11:32:46;;;;;;;6.70;0.90;;;24.20;64.90;;;;;;5073834;28;20060;-77
2021/10/11 11:35:27;;;;;;;5.55;1.10;;;24.70;62.30;;;;;;5075363;28;20036;-77
2021/10/11 11:37:56;;;;;;;6.82;1.10;;;25.20;62.40;;;;;;5073985;28;20426;-77
2021/10/11 11:40:25;;;;;;;4.82;0.75;;;25.30;59.50;;;;;;5075371;28;20028;-76
2021/10/11 11:42:52;;;;;;;6.43;0.90;;;25.30;56.40;;;;;;5075228;28;20025;-77
2021/10/11 11:45:20;;;;;;;4.22;0.73;;;25.10;55.50;;;;;;5074273;28;20042;-76
2021/10/11 11:47:47;;;;;;;3.50;0.70;;;24.60;52.80;;;;;;5074477;28;20099;-79
2021/10/11 11:50:30;;;;;;;5.40;0.98;;;24.20;52.20;;;;;;5075104;28;20117;-77
2021/10/11 11:53:15;;;;;;;7.55;0.85;;;23.90;52.00;;;;;;5041502;28;20033;-79
2021/10/11 11:55:44;;;;;;;7.75;1.20;;;23.70;52.30;;;;;;5075835;28;20028;-78
2021/10/11 11:58:15;;;;;;;3.83;0.70;;;23.40;52.30;;;;;;5078760;28;20021;-78
2021/10/11 12:00:50;;;;;;;9.15;0.90;;;22.80;52.40;;;;;;5092453;28;20024;-79
2021/10/11 12:03:21;;;;;;;7.30;0.80;;;22.00;53.40;;;;;;5080303;28;20056;-79
2021/10/11 12:05:50;;;;;;;5.88;0.88;;;21.40;54.70;;;;;;5084422;28;20093;-78
2021/10/11 12:08:16;;;;;;;6.50;0.80;;;20.90;55.80;;;;;;5076252;28;20024;-81
2021/10/11 12:10:42;;;;;;;7.28;0.95;;;20.70;57.00;;;;;;5076834;28;20483;-77
2021/10/11 12:13:08;;;;;;;6.72;0.95;;;21.10;57.90;;;;;;5060163;28;20028;-80
2021/10/11 12:15:34;;;;;;;8.82;0.80;;;21.60;57.60;;;;;;5060226;28;20418;-79
2021/10/11 12:18:06;;;;;;;5.22;0.60;;;22.10;56.10;;;;;;5093485;28;20027;-82
2021/10/11 12:20:42;;;;;;;4.82;0.65;;;22.60;55.40;;;;;;5094686;28;20038;-79
2021/10/11 12:23:08;;;;;;;3.88;0.60;;;23.00;54.70;;;;;;5089536;28;20388;-76
2021/10/11 12:25:34;;;;;;;5.32;0.73;;;23.30;54.70;;;;;;5084724;28;20016;-78
2021/10/11 12:28:17;;;;;;;5.45;0.80;;;23.60;54.40;;;;;;5093758;28;20109;-77
2021/10/11 12:30:45;;;;;;;5.53;0.55;;;23.80;53.80;;;;;;5094835;28;20020;-77
2021/10/11 12:33:14;;;;;;;3.17;0.63;;;23.90;53.70;;;;;;5094837;28;20028;-80
2021/10/11 12:35:41;;;;;;;5.28;0.47;;;23.90;53.90;;;;;;5093020;28;20028;-79
2021/10/11 12:38:11;;;;;;;4.47;0.50;;;23.90;52.90;;;;;;5094241;28;20078;-79
2021/10/11 12:40:40;;;;;;;4.30;0.70;;;23.70;52.50;;;;;;5094454;28;20030;-77
2021/10/11 12:43:19;;;;;;;3.75;0.32;;;23.50;52.80;;;;;;5092887;28;20032;-78
2021/10/11 12:46:04;;;;;;;3.88;0.50;;;23.20;53.80;;;;;;5093031;28;20051;-78